WIPP

Palembang International

Airport
ICAO code
WIPP
Summary
ICAO Region
APAC
ICAO Territory
Location

Palembang,

Coordinates
2° 53' 52" S , 104° 42' 5" E
KCC
Af
Metar
Observation
WIPP 111800Z 12004KT 9999 FEW010 27/25 Q1009 NOSIG
Station
Palembang / Talangbetutu
Date/Time
2022-08-11 18:00:00
Wind direction
120°
Wind speed
04 kts
Lowest cloud amount
few clouds
Temperature
27°C
Dew point
25°C
Humidity
88%
QNH
1009 hPa
Weather condition
n/a

Description

international airport serving the city of Palembang, South Sumatra.

Climatology

Tropical Rainforest climate (Köppen climate classification Af) - almost no distinct seasons, average daily temperature around 27°C throughout the year. Extensive cloud cover and heavy rainfall prevent temperatures from rising much over 33°C. The diurnal temperature change is between 2°C and 5°C which is greater than the annual temperature range of 2°C. Rainfall is heavy and is usually convectional and in the afternoon.

Airport map

Aerial View

SKYbrary Partners:

Safety knowledge contributed by: